Time;durP1;ratioP1;P1;durP2;ratioP2;P2;SDS_P1;SDS_P2;PMS_P1;PMS_P2;Temp;Humidity;BMP_temperature;BMP_pressure;BME280_temperature;BME280_humidity;BME280_pressure;Samples;Min_cycle;Max_cycle;Signal;HPM_P1;HPM_P2
2022/01/23 00:00:10;;;;;;;;;;;;;;;;;;6229581;23;19924;-92
2022/01/23 00:02:36;;;;;;;;;;;;;;;;;;6228022;23;19924;-92
2022/01/23 00:05:06;;;;;;;;;;;;;;;;;;6228466;23;19930;-94
2022/01/23 00:07:33;;;;;;;;;;;;;;;;;;6226356;23;19972;-94
2022/01/23 00:10:00;;;;;;;;;;;;;;;;;;6229223;23;19923;-96
2022/01/23 00:12:33;;;;;;;;;;;;;;;;;;6232776;23;19923;-96
2022/01/23 00:17:43;;;;;;;;;;;;;;;;;;6227614;23;19940;-95
2022/01/23 00:20:09;;;;;;;;;;;;;;;;;;6226821;23;19919;-92
2022/01/23 00:22:42;;;;;;;;;;;;;;;;;;6227410;23;19923;-96
2022/01/23 00:30:37;;;;;;;;;;;;;;;;;;6226964;23;19934;-91
2022/01/23 00:33:03;;;;;;;;;;;;;;;;;;6226632;23;19947;-91
2022/01/23 00:35:29;;;;;;;;;;;;;;;;;;6227182;23;19924;-92
2022/01/23 00:37:55;;;;;;;;;;;;;;;;;;6226400;23;19920;-92
2022/01/23 00:40:22;;;;;;;;;;;;;;;;;;6226300;23;19920;-92
2022/01/23 00:42:48;;;;;;;;;;;;;;;;;;6227025;23;19920;-93
2022/01/23 00:45:28;;;;;;;;;;;;;;;;;;6225175;23;19924;-93
2022/01/23 00:47:57;;;;;;;;;;;;;;;;;;6225232;23;19920;-91
2022/01/23 00:50:23;;;;;;;;;;;;;;;;;;6225025;23;20397;-91
2022/01/23 00:52:50;;;;;;;;;;;;;;;;;;6225579;23;20330;-91
2022/01/23 00:55:16;;;;;;;;;;;;;;;;;;6224018;23;20685;-92
2022/01/23 00:57:42;;;;;;;;;;;;;;;;;;6223549;23;20493;-92
2022/01/23 01:00:08;;;;;;;;;;;;;;;;;;6226085;23;19942;-92
2022/01/23 01:02:35;;;;;;;;;;;;;;;;;;6226510;23;20346;-96
2022/01/23 01:05:01;;;;;;;;;;;;;;;;;;6224423;23;19982;-92
2022/01/23 01:07:27;;;;;;;;;;;;;;;;;;6225076;23;20006;-93
2022/01/23 01:09:59;;;;;;;;;;;;;;;;;;6224467;23;19927;-93
2022/01/23 01:12:30;;;;;;;;;;;;;;;;;;6224621;23;19931;-93
2022/01/23 01:15:24;;;;;;;;;;;;;;;;;;6226662;23;19920;-92
2022/01/23 01:31:38;;;;;;;;;;;;;;;;;;6226621;23;19918;-92
2022/01/23 01:34:08;;;;;;;;;;;;;;;;;;6225694;23;19924;-93
2022/01/23 01:36:44;;;;;;;;;;;;;;;;;;6225632;23;19931;-92
2022/01/23 01:39:11;;;;;;;;;;;;;;;;;;6225793;23;19920;-93
2022/01/23 01:41:37;;;;;;;;;;;;;;;;;;6226119;23;19924;-92
2022/01/23 01:44:03;;;;;;;;;;;;;;;;;;6225415;23;19923;-92
2022/01/23 01:46:29;;;;;;;;;;;;;;;;;;6226339;23;19951;-92
2022/01/23 01:48:56;;;;;;;;;;;;;;;;;;6225403;23;19920;-92
2022/01/23 01:51:22;;;;;;;;;;;;;;;;;;6223796;23;19950;-92
2022/01/23 01:53:52;;;;;;;;;;;;;;;;;;6224978;23;19940;-92
2022/01/23 01:56:18;;;;;;;;;;;;;;;;;;6225789;23;19943;-92
2022/01/23 02:09:48;;;;;;;;;;;;;;;;;;6225570;23;19919;-92
2022/01/23 02:12:41;;;;;;;;;;;;;;;;;;6225759;23;19928;-93
2022/01/23 02:15:29;;;;;;;;;;;;;;;;;;6225240;23;19920;-92
2022/01/23 02:18:02;;;;;;;;;;;;;;;;;;6226177;23;19923;-93
2022/01/23 02:23:29;;;;;;;;;;;;;;;;;;6226233;23;19914;-93
2022/01/23 02:50:45;;;;;;;;;;;;;;;;;;6225251;23;20258;-92
2022/01/23 02:55:56;;;;;;;;;;;;;;;;;;6225654;23;19930;-92
2022/01/23 02:58:30;;;;;;;;;;;;;;;;;;6225119;23;19920;-92
2022/01/23 03:01:08;;;;;;;;;;;;;;;;;;6224541;23;19919;-92
2022/01/23 03:03:38;;;;;;;;;;;;;;;;;;6225313;23;19923;-92
2022/01/23 03:06:19;;;;;;;;;;;;;;;;;;6225331;23;19968;-92
2022/01/23 03:09:08;;;;;;;;;;;;;;;;;;6224659;23;19999;-92
2022/01/23 03:11:58;;;;;;;;;;;;;;;;;;6223942;23;19924;-91
2022/01/23 03:14:38;;;;;;;;;;;;;;;;;;6226166;23;19924;-92
2022/01/23 03:25:35;;;;;;;;;;;;;;;;;;6194400;23;19946;-93
2022/01/23 03:28:18;;;;;;;;;;;;;;;;;;6226655;23;19942;-93
2022/01/23 03:30:53;;;;;;;;;;;;;;;;;;6227264;23;19958;-94
2022/01/23 03:33:19;;;;;;;;;;;;;;;;;;6227417;23;19959;-93
2022/01/23 03:35:48;;;;;;;;;;;;;;;;;;6227542;23;19920;-94
2022/01/23 03:38:14;;;;;;;;;;;;;;;;;;6226991;23;20387;-93
2022/01/23 03:40:40;;;;;;;;;;;;;;;;;;6224027;23;19989;-93
2022/01/23 03:43:10;;;;;;;;;;;;;;;;;;6225192;23;19977;-93
2022/01/23 03:45:56;;;;;;;;;;;;;;;;;;6199634;23;19931;-93
2022/01/23 03:51:07;;;;;;;;;;;;;;;;;;6226107;23;19919;-94
2022/01/23 03:53:33;;;;;;;;;;;;;;;;;;6226391;23;19920;-92
2022/01/23 03:55:59;;;;;;;;;;;;;;;;;;6227081;23;19919;-93
2022/01/23 03:58:25;;;;;;;;;;;;;;;;;;6226648;23;19924;-93
2022/01/23 04:00:52;;;;;;;;;;;;;;;;;;6225479;23;19947;-93
2022/01/23 04:03:19;;;;;;;;;;;;;;;;;;6225638;23;19947;-93
2022/01/23 04:05:45;;;;;;;;;;;;;;;;;;6224904;23;19924;-94
2022/01/23 04:08:11;;;;;;;;;;;;;;;;;;6224808;23;19956;-93
2022/01/23 04:10:38;;;;;;;;;;;;;;;;;;6224232;23;19924;-94
2022/01/23 04:13:14;;;;;;;;;;;;;;;;;;6224020;23;19927;-91
2022/01/23 04:15:46;;;;;;;;;;;;;;;;;;6226694;23;19955;-93
2022/01/23 04:21:20;;;;;;;;;;;;;;;;;;6224755;23;19931;-93
2022/01/23 04:32:15;;;;;;;;;;;;;;;;;;6225205;23;19919;-93
2022/01/23 04:34:59;;;;;;;;;;;;;;;;;;6227250;23;20236;-93
2022/01/23 04:45:40;;;;;;;;;;;;;;;;;;6224130;23;19915;-94
2022/01/23 05:01:55;;;;;;;;;;;;;;;;;;6228255;23;19918;-94
2022/01/23 05:04:24;;;;;;;;;;;;;;;;;;6226535;23;19923;-95
2022/01/23 05:07:00;;;;;;;;;;;;;;;;;;6225782;23;20334;-95
2022/01/23 05:09:26;;;;;;;;;;;;;;;;;;6223852;23;19954;-93
2022/01/23 05:11:53;;;;;;;;;;;;;;;;;;6223965;23;19920;-93
2022/01/23 05:14:26;;;;;;;;;;;;;;;;;;6225483;23;19920;-93
2022/01/23 05:16:52;;;;;;;;;;;;;;;;;;6231004;23;19960;-94
2022/01/23 05:19:18;;;;;;;;;;;;;;;;;;6225953;23;19943;-94
2022/01/23 05:22:15;;;;;;;;;;;;;;;;;;6228197;23;19927;-96
2022/01/23 05:24:54;;;;;;;;;;;;;;;;;;6231190;23;19920;-96
2022/01/23 05:27:36;;;;;;;;;;;;;;;;;;6230916;23;19924;-96
2022/01/23 05:30:03;;;;;;;;;;;;;;;;;;6167974;23;19904;-96
2022/01/23 05:32:33;;;;;;;;;;;;;;;;;;6163770;23;19932;-93
2022/01/23 05:34:59;;;;;;;;;;;;;;;;;;6166582;23;20305;-93
2022/01/23 05:37:25;;;;;;;;;;;;;;;;;;6166613;23;20007;-93
2022/01/23 05:39:52;;;;;;;;;;;;;;;;;;6166230;23;19972;-93
2022/01/23 05:42:18;;;;;;;;;;;;;;;;;;6166043;23;19921;-94
2022/01/23 05:44:44;;;;;;;;;;;;;;;;;;6166062;23;19928;-94
2022/01/23 05:47:10;;;;;;;;;;;;;;;;;;6165747;23;19928;-93
2022/01/23 05:49:37;;;;;;;;;;;;;;;;;;6165751;23;19924;-94
2022/01/23 05:52:03;;;;;;;;;;;;;;;;;;6163645;23;19925;-94
2022/01/23 05:54:30;;;;;;;;;;;;;;;;;;6164449;23;19944;-94
2022/01/23 05:56:56;;;;;;;;;;;;;;;;;;6164307;23;19944;-94
2022/01/23 05:59:22;;;;;;;;;;;;;;;;;;6164196;23;19920;-93
2022/01/23 06:01:51;;;;;;;;;;;;;;;;;;6164282;23;19944;-95
2022/01/23 06:04:17;;;;;;;;;;;;;;;;;;6165149;23;19984;-94
2022/01/23 06:06:43;;;;;;;;;;;;;;;;;;6166046;23;20275;-94
2022/01/23 06:09:10;;;;;;;;;;;;;;;;;;6165343;23;20244;-94
2022/01/23 06:11:36;;;;;;;;;;;;;;;;;;6165140;23;19920;-94
2022/01/23 06:14:02;;;;;;;;;;;;;;;;;;6164871;23;19921;-94
2022/01/23 06:16:28;;;;;;;;;;;;;;;;;;6165703;23;19948;-94
2022/01/23 06:18:55;;;;;;;;;;;;;;;;;;6165906;23;19924;-94
2022/01/23 06:21:22;;;;;;;;;;;;;;;;;;6165998;23;19924;-93
2022/01/23 06:23:55;;;;;;;;;;;;;;;;;;6165832;23;20003;-93
2022/01/23 06:26:22;;;;;;;;;;;;;;;;;;6165821;23;20410;-93
2022/01/23 06:28:48;;;;;;;;;;;;;;;;;;6184064;23;20511;-94
2022/01/23 06:31:14;;;;;;;;;;;;;;;;;;6195498;23;19927;-93
2022/01/23 06:33:40;;;;;;;;;;;;;;;;;;6195463;23;19992;-93
2022/01/23 06:36:07;;;;;;;;;;;;;;;;;;6194572;23;20012;-95
2022/01/23 06:38:33;;;;;;;;;;;;;;;;;;6194482;23;19928;-94
2022/01/23 06:40:59;;;;;;;;;;;;;;;;;;6195880;23;19920;-94
2022/01/23 06:43:25;;;;;;;;;;;;;;;;;;6195439;23;19947;-93
2022/01/23 06:45:52;;;;;;;;;;;;;;;;;;6193029;23;19959;-94
2022/01/23 06:48:18;;;;;;;;;;;;;;;;;;6192521;23;19947;-94
2022/01/23 06:50:44;;;;;;;;;;;;;;;;;;6194685;23;19924;-92
2022/01/23 06:53:11;;;;;;;;;;;;;;;;;;6193986;23;19951;-92
2022/01/23 06:55:37;;;;;;;;;;;;;;;;;;6194008;23;19942;-92
2022/01/23 06:58:03;;;;;;;;;;;;;;;;;;6192026;23;19944;-93
2022/01/23 07:00:31;;;;;;;;;;;;;;;;;;6194309;23;19920;-92
2022/01/23 07:02:57;;;;;;;;;;;;;;;;;;6194146;23;20000;-92
2022/01/23 07:05:23;;;;;;;;;;;;;;;;;;6195421;23;19921;-92
2022/01/23 07:07:50;;;;;;;;;;;;;;;;;;6194300;23;19920;-92
2022/01/23 07:10:16;;;;;;;;;;;;;;;;;;6194745;23;19924;-91
2022/01/23 07:12:42;;;;;;;;;;;;;;;;;;6193616;23;19920;-91
2022/01/23 07:15:08;;;;;;;;;;;;;;;;;;6192932;23;19924;-90
2022/01/23 07:17:35;;;;;;;;;;;;;;;;;;6191984;23;19943;-91
2022/01/23 07:20:01;;;;;;;;;;;;;;;;;;6192291;23;19924;-91
2022/01/23 07:22:27;;;;;;;;;;;;;;;;;;6190361;23;19952;-91
2022/01/23 07:24:55;;;;;;;;;;;;;;;;;;6192368;23;19924;-91
2022/01/23 07:27:22;;;;;;;;;;;;;;;;;;6194496;23;19925;-91
2022/01/23 07:29:48;;;;;;;;;;;;;;;;;;6195066;23;19924;-92
2022/01/23 07:32:15;;;;;;;;;;;;;;;;;;6194414;23;19927;-91
2022/01/23 07:34:41;;;;;;;;;;;;;;;;;;6194168;23;19928;-91
2022/01/23 07:37:07;;;;;;;;;;;;;;;;;;6193963;23;20003;-91
2022/01/23 07:39:33;;;;;;;;;;;;;;;;;;6193784;23;19928;-94
2022/01/23 07:42:00;;;;;;;;;;;;;;;;;;6193740;23;19932;-91
2022/01/23 07:44:26;;;;;;;;;;;;;;;;;;6194046;23;19967;-90
2022/01/23 07:46:52;;;;;;;;;;;;;;;;;;6191153;23;19924;-90
2022/01/23 07:49:19;;;;;;;;;;;;;;;;;;6192129;23;19928;-90
2022/01/23 07:51:45;;;;;;;;;;;;;;;;;;6193277;23;19947;-91
2022/01/23 07:54:11;;;;;;;;;;;;;;;;;;6192463;23;19924;-90
2022/01/23 07:56:40;;;;;;;;;;;;;;;;;;6190783;23;19920;-91
2022/01/23 07:59:06;;;;;;;;;;;;;;;;;;6191882;23;19991;-90
2022/01/23 08:01:32;;;;;;;;;;;;;;;;;;6194577;23;19920;-90
2022/01/23 08:03:59;;;;;;;;;;;;;;;;;;6195372;23;19928;-91
2022/01/23 08:06:28;;;;;;;;;;;;;;;;;;6195558;23;19924;-90
2022/01/23 08:08:55;;;;;;;;;;;;;;;;;;6195089;23;19944;-90
2022/01/23 08:11:22;;;;;;;;;;;;;;;;;;6192193;23;19924;-90
2022/01/23 08:13:48;;;;;;;;;;;;;;;;;;6193277;23;19926;-90
2022/01/23 08:16:14;;;;;;;;;;;;;;;;;;6195613;23;19924;-93
2022/01/23 08:18:41;;;;;;;;;;;;;;;;;;6194793;23;19974;-90
2022/01/23 08:21:08;;;;;;;;;;;;;;;;;;6189037;23;19924;-96
2022/01/23 08:23:34;;;;;;;;;;;;;;;;;;6188148;23;19928;-90
2022/01/23 08:26:00;;;;;;;;;;;;;;;;;;6194656;23;19952;-95
2022/01/23 08:28:26;;;;;;;;;;;;;;;;;;6195361;23;19944;-92
2022/01/23 08:30:53;;;;;;;;;;;;;;;;;;6197127;23;19920;-96
2022/01/23 08:33:19;;;;;;;;;;;;;;;;;;6195639;23;19924;-91
2022/01/23 08:35:45;;;;;;;;;;;;;;;;;;6195122;23;19921;-90
2022/01/23 08:38:13;;;;;;;;;;;;;;;;;;6195825;23;19991;-90
2022/01/23 08:41:49;;;;;;;;;;;;;;;;;;6194923;23;19924;-90
2022/01/23 08:43:35;;;;;;;;;;;;;;;;;;6194510;23;19920;-92
2022/01/23 08:46:01;;;;;;;;;;;;;;;;;;6193570;23;19920;-93
2022/01/23 08:48:27;;;;;;;;;;;;;;;;;;6193592;23;20502;-90
2022/01/23 08:50:53;;;;;;;;;;;;;;;;;;6194761;23;20437;-92
2022/01/23 08:53:20;;;;;;;;;;;;;;;;;;6195575;23;20397;-91
2022/01/23 08:55:46;;;;;;;;;;;;;;;;;;6195335;23;20465;-94
2022/01/23 08:58:12;;;;;;;;;;;;;;;;;;6195900;23;20291;-94
2022/01/23 09:00:38;;;;;;;;;;;;;;;;;;6194857;23;19921;-93
2022/01/23 09:03:05;;;;;;;;;;;;;;;;;;6194889;23;19921;-94
2022/01/23 09:05:31;;;;;;;;;;;;;;;;;;6194027;23;19967;-91
2022/01/23 09:07:57;;;;;;;;;;;;;;;;;;6192962;23;19928;-90
2022/01/23 09:10:28;;;;;;;;;;;;;;;;;;6195327;23;19939;-91
2022/01/23 09:13:06;;;;;;;;;;;;;;;;;;6196085;23;19928;-90
2022/01/23 09:15:32;;;;;;;;;;;;;;;;;;6194606;23;19948;-93
2022/01/23 09:17:59;;;;;;;;;;;;;;;;;;6194099;23;20600;-89
2022/01/23 09:20:25;;;;;;;;;;;;;;;;;;6193875;23;19947;-89
2022/01/23 09:22:51;;;;;;;;;;;;;;;;;;6194225;23;19947;-90
2022/01/23 09:25:17;;;;;;;;;;;;;;;;;;6196770;23;20428;-95
2022/01/23 09:27:44;;;;;;;;;;;;;;;;;;6194091;23;19928;-92
2022/01/23 09:30:17;;;;;;;;;;;;;;;;;;6193476;23;19924;-93
2022/01/23 09:32:44;;;;;;;;;;;;;;;;;;6194346;23;19972;-93
2022/01/23 09:35:10;;;;;;;;;;;;;;;;;;6195377;23;19920;-94
2022/01/23 09:37:41;;;;;;;;;;;;;;;;;;6199357;23;19934;-96
2022/01/23 09:40:08;;;;;;;;;;;;;;;;;;6201476;23;19968;-94
2022/01/23 09:42:34;;;;;;;;;;;;;;;;;;6196066;23;19924;-91
2022/01/23 09:45:00;;;;;;;;;;;;;;;;;;6198005;23;19924;-91
2022/01/23 09:47:27;;;;;;;;;;;;;;;;;;6198110;23;19943;-94
2022/01/23 09:49:53;;;;;;;;;;;;;;;;;;6194730;23;19967;-94
2022/01/23 09:52:19;;;;;;;;;;;;;;;;;;6192408;23;19979;-93
2022/01/23 09:54:52;;;;;;;;;;;;;;;;;;6195862;23;19928;-91
2022/01/23 09:57:19;;;;;;;;;;;;;;;;;;6196699;23;19956;-96
2022/01/23 09:59:50;;;;;;;;;;;;;;;;;;6198034;23;19944;-96
2022/01/23 10:02:17;;;;;;;;;;;;;;;;;;6197050;23;19955;-91
2022/01/23 10:04:43;;;;;;;;;;;;;;;;;;6197462;23;19920;-90
2022/01/23 10:07:09;;;;;;;;;;;;;;;;;;6195796;23;19944;-95
2022/01/23 10:09:38;;;;;;;;;;;;;;;;;;6196059;23;19920;-96
2022/01/23 10:12:04;;;;;;;;;;;;;;;;;;6194630;23;19920;-90
2022/01/23 10:14:32;;;;;;;;;;;;;;;;;;6195536;23;20331;-94
2022/01/23 10:16:58;;;;;;;;;;;;;;;;;;6195846;23;19978;-92
2022/01/23 10:19:28;;;;;;;;;;;;;;;;;;6197513;23;19928;-96
2022/01/23 10:21:55;;;;;;;;;;;;;;;;;;6197069;23;19927;-88
2022/01/23 10:24:21;;;;;;;;;;;;;;;;;;6198473;23;19924;-96
2022/01/23 10:26:49;;;;;;;;;;;;;;;;;;6198648;23;19924;-94
2022/01/23 10:29:15;;;;;;;;;;;;;;;;;;6147145;23;19920;-92
2022/01/23 10:31:42;;;;;;;;;;;;;;;;;;6135753;23;20382;-96
2022/01/23 10:34:08;;;;;;;;;;;;;;;;;;6137156;23;20113;-91
2022/01/23 10:36:34;;;;;;;;;;;;;;;;;;6132656;23;19921;-94
2022/01/23 10:39:04;;;;;;;;;;;;;;;;;;6132927;23;20407;-91
2022/01/23 10:41:45;;;;;;;;;;;;;;;;;;6136817;23;19921;-93
2022/01/23 10:47:27;;;;;;;;;;;;;;;;;;6138109;23;19933;-92
2022/01/23 10:49:50;;;;;;;;;;;;;;;;;;6136375;23;19965;-94
2022/01/23 10:52:17;;;;;;;;;;;;;;;;;;6136941;23;19927;-95
2022/01/23 10:54:43;;;;;;;;;;;;;;;;;;6135861;23;19928;-92
2022/01/23 10:57:09;;;;;;;;;;;;;;;;;;6135945;23;19925;-92
2022/01/23 10:59:37;;;;;;;;;;;;;;;;;;6136246;23;19964;-96
2022/01/23 11:02:03;;;;;;;;;;;;;;;;;;6132971;23;19931;-92
2022/01/23 11:04:30;;;;;;;;;;;;;;;;;;6136611;23;19946;-94
2022/01/23 11:06:57;;;;;;;;;;;;;;;;;;6136345;23;19921;-92
2022/01/23 11:09:23;;;;;;;;;;;;;;;;;;6134849;23;19926;-93
2022/01/23 11:11:51;;;;;;;;;;;;;;;;;;6136170;23;19945;-92
2022/01/23 11:19:47;;;;;;;;;;;;;;;;;;6131767;23;19965;-95
2022/01/23 11:22:13;;;;;;;;;;;;;;;;;;6133278;23;19955;-93
2022/01/23 11:24:42;;;;;;;;;;;;;;;;;;6131804;23;19920;-93
2022/01/23 11:27:08;;;;;;;;;;;;;;;;;;6131730;23;19944;-93
2022/01/23 11:29:36;;;;;;;;;;;;;;;;;;6131358;23;19953;-95
2022/01/23 11:32:02;;;;;;;;;;;;;;;;;;6134619;23;19925;-91
2022/01/23 11:34:29;;;;;;;;;;;;;;;;;;6133876;23;20100;-96
2022/01/23 11:36:56;;;;;;;;;;;;;;;;;;6137765;23;19924;-95
2022/01/23 11:39:37;;;;;;;;;;;;;;;;;;6136427;23;19921;-94
2022/01/23 11:55:41;;;;;;;;;;;;;;;;;;6139466;23;19961;-96
2022/01/23 11:58:08;;;;;;;;;;;;;;;;;;6138904;23;19931;-93
2022/01/23 12:00:34;;;;;;;;;;;;;;;;;;6142545;23;19925;-96
2022/01/23 12:03:00;;;;;;;;;;;;;;;;;;6138763;23;19925;-94
2022/01/23 12:05:27;;;;;;;;;;;;;;;;;;6141586;23;19928;-96
2022/01/23 12:07:53;;;;;;;;;;;;;;;;;;6139638;23;19925;-92
2022/01/23 12:10:24;;;;;;;;;;;;;;;;;;6137640;23;19924;-91
2022/01/23 12:12:53;;;;;;;;;;;;;;;;;;6139515;23;19932;-96
2022/01/23 12:18:03;;;;;;;;;;;;;;;;;;6140444;23;19967;-96
2022/01/23 12:20:29;;;;;;;;;;;;;;;;;;6136512;23;19941;-91
2022/01/23 12:22:56;;;;;;;;;;;;;;;;;;6138419;23;19928;-90
2022/01/23 12:25:22;;;;;;;;;;;;;;;;;;6135750;23;19921;-95
2022/01/23 12:27:48;;;;;;;;;;;;;;;;;;6135143;23;19921;-93
2022/01/23 12:30:15;;;;;;;;;;;;;;;;;;6138881;23;19964;-91
2022/01/23 12:32:41;;;;;;;;;;;;;;;;;;6140037;23;19921;-92
2022/01/23 12:35:08;;;;;;;;;;;;;;;;;;6137708;23;19954;-88
2022/01/23 12:37:34;;;;;;;;;;;;;;;;;;6137286;23;19928;-94
2022/01/23 12:40:00;;;;;;;;;;;;;;;;;;6136231;23;19925;-93
2022/01/23 12:42:26;;;;;;;;;;;;;;;;;;6138943;23;19921;-91
2022/01/23 12:44:53;;;;;;;;;;;;;;;;;;6140996;23;19925;-94
2022/01/23 12:47:19;;;;;;;;;;;;;;;;;;6139024;23;19949;-93
2022/01/23 12:49:47;;;;;;;;;;;;;;;;;;6139335;23;19973;-95
2022/01/23 12:52:15;;;;;;;;;;;;;;;;;;6139099;23;20332;-96
2022/01/23 12:54:41;;;;;;;;;;;;;;;;;;6140420;23;19921;-94
2022/01/23 12:57:08;;;;;;;;;;;;;;;;;;6139402;23;19920;-92
2022/01/23 12:59:35;;;;;;;;;;;;;;;;;;6139817;23;19928;-92
2022/01/23 13:02:08;;;;;;;;;;;;;;;;;;6139236;23;19969;-94
2022/01/23 13:04:34;;;;;;;;;;;;;;;;;;6138596;23;19925;-93
2022/01/23 13:07:02;;;;;;;;;;;;;;;;;;6136203;23;19948;-95
2022/01/23 13:09:34;;;;;;;;;;;;;;;;;;6138309;23;19988;-92
2022/01/23 13:12:10;;;;;;;;;;;;;;;;;;6138147;23;19956;-95
2022/01/23 13:14:37;;;;;;;;;;;;;;;;;;6216675;23;19920;-93
2022/01/23 13:29:10;;;;;;;;;;;;;;;;;;6168836;23;19918;-96
2022/01/23 13:31:17;;;;;;;;;;;;;;;;;;6188899;23;19968;-94
2022/01/23 13:33:43;;;;;;;;;;;;;;;;;;6147182;23;19928;-92
2022/01/23 13:36:09;;;;;;;;;;;;;;;;;;6171716;23;19904;-94
2022/01/23 13:38:46;;;;;;;;;;;;;;;;;;6171830;23;20346;-96
2022/01/23 13:52:42;;;;;;;;;;;;;;;;;;6124277;23;19988;-95
2022/01/23 14:00:35;;;;;;;;;;;;;;;;;;6162572;23;19931;-94
2022/01/23 14:03:14;;;;;;;;;;;;;;;;;;6170107;23;19957;-96
2022/01/23 14:05:40;;;;;;;;;;;;;;;;;;6174558;23;19944;-96
2022/01/23 14:08:06;;;;;;;;;;;;;;;;;;6170543;23;19953;-94
2022/01/23 14:10:33;;;;;;;;;;;;;;;;;;6186986;23;19975;-96
2022/01/23 14:13:00;;;;;;;;;;;;;;;;;;6233555;23;19983;-94
2022/01/23 14:15:35;;;;;;;;;;;;;;;;;;6235460;23;19956;-95
2022/01/23 14:18:01;;;;;;;;;;;;;;;;;;6231220;23;19928;-96
2022/01/23 14:20:31;;;;;;;;;;;;;;;;;;6206341;23;19904;-95
2022/01/23 14:22:57;;;;;;;;;;;;;;;;;;6233534;23;19972;-94
2022/01/23 14:25:35;;;;;;;;;;;;;;;;;;6232777;23;19904;-96
2022/01/23 14:28:03;;;;;;;;;;;;;;;;;;6235922;23;19924;-96
2022/01/23 14:30:36;;;;;;;;;;;;;;;;;;6224040;22;19910;-94
2022/01/23 14:33:07;;;;;;;;;;;;;;;;;;6227593;23;19948;-96
2022/01/23 14:38:06;;;;;;;;;;;;;;;;;;6233362;22;19920;-96
2022/01/23 14:40:44;;;;;;;;;;;;;;;;;;6264418;23;19923;-96
2022/01/23 14:43:16;;;;;;;;;;;;;;;;;;6263744;23;19946;-95
2022/01/23 14:48:26;;;;;;;;;;;;;;;;;;6250145;22;20021;-96
2022/01/23 14:50:54;;;;;;;;;;;;;;;;;;6230790;23;19919;-95
2022/01/23 14:53:20;;;;;;;;;;;;;;;;;;6228290;23;19950;-93
2022/01/23 14:55:47;;;;;;;;;;;;;;;;;;6227805;23;19924;-93
2022/01/23 15:01:03;;;;;;;;;;;;;;;;;;6226620;23;19963;-90
2022/01/23 15:03:29;;;;;;;;;;;;;;;;;;6223987;23;19919;-93
2022/01/23 15:05:56;;;;;;;;;;;;;;;;;;6223566;23;19967;-92
2022/01/23 15:08:25;;;;;;;;;;;;;;;;;;6222997;23;19931;-96
2022/01/23 15:10:51;;;;;;;;;;;;;;;;;;6217326;23;19931;-94
2022/01/23 15:13:19;;;;;;;;;;;;;;;;;;6227175;23;19924;-93
2022/01/23 15:15:45;;;;;;;;;;;;;;;;;;6223778;23;19923;-96
2022/01/23 15:18:11;;;;;;;;;;;;;;;;;;6226186;23;19982;-94
2022/01/23 15:20:38;;;;;;;;;;;;;;;;;;6223994;23;19926;-94
2022/01/23 15:23:04;;;;;;;;;;;;;;;;;;6223669;23;19924;-93
2022/01/23 15:25:30;;;;;;;;;;;;;;;;;;6225957;23;19982;-93
2022/01/23 15:28:00;;;;;;;;;;;;;;;;;;6228938;23;19920;-96
2022/01/23 15:30:26;;;;;;;;;;;;;;;;;;6231402;23;19920;-96
2022/01/23 15:32:54;;;;;;;;;;;;;;;;;;6227388;23;19919;-96
2022/01/23 15:35:20;;;;;;;;;;;;;;;;;;6227495;23;19947;-95
2022/01/23 15:37:47;;;;;;;;;;;;;;;;;;6227873;23;19927;-96
2022/01/23 15:56:27;;;;;;;;;;;;;;;;;;4972873;22;6243653;-96
2022/01/23 15:59:05;;;;;;;;;;;;;;;;;;5205394;22;19926;-96
2022/01/23 16:01:46;;;;;;;;;;;;;;;;;;5133299;22;19924;-96
2022/01/23 16:04:13;;;;;;;;;;;;;;;;;;5367447;22;19938;-96
2022/01/23 16:12:02;;;;;;;;;;;;;;;;;;5175729;22;19935;-96
2022/01/23 16:22:14;;;;;;;;;;;;;;;;;;5705967;22;19962;-95
2022/01/23 16:24:47;;;;;;;;;;;;;;;;;;5274553;22;19920;-96
2022/01/23 16:27:13;;;;;;;;;;;;;;;;;;5122857;28;19930;-96
2022/01/23 16:29:39;;;;;;;;;;;;;;;;;;5122873;28;19931;-95
2022/01/23 16:32:06;;;;;;;;;;;;;;;;;;5123754;28;19929;-96
2022/01/23 16:39:42;;;;;;;;;;;;;;;;;;5379447;22;19942;-96
2022/01/23 16:42:12;;;;;;;;;;;;;;;;;;5146531;22;19935;-96
2022/01/23 16:47:28;;;;;;;;;;;;;;;;;;5153771;22;19928;-92
2022/01/23 16:49:55;;;;;;;;;;;;;;;;;;5126949;28;19924;-96
2022/01/23 16:54:57;;;;;;;;;;;;;;;;;;5281422;22;19971;-95
2022/01/23 16:57:23;;;;;;;;;;;;;;;;;;5090903;28;19917;-96
2022/01/23 17:10:29;;;;;;;;;;;;;;;;;;5355054;22;20279;-96
2022/01/23 17:12:55;;;;;;;;;;;;;;;;;;5105526;22;19909;-96
2022/01/23 17:18:21;;;;;;;;;;;;;;;;;;5102424;22;19933;-96
2022/01/23 17:23:23;;;;;;;;;;;;;;;;;;5177125;22;19928;-96
2022/01/23 17:25:50;;;;;;;;;;;;;;;;;;5095809;28;19909;-96
2022/01/23 17:28:17;;;;;;;;;;;;;;;;;;5097423;28;19909;-94
2022/01/23 17:33:24;;;;;;;;;;;;;;;;;;5097568;28;19908;-96
2022/01/23 17:35:53;;;;;;;;;;;;;;;;;;5094040;28;19920;-95
2022/01/23 17:40:54;;;;;;;;;;;;;;;;;;5539780;22;19936;-96
2022/01/23 17:46:05;;;;;;;;;;;;;;;;;;5110776;28;19924;-96
2022/01/23 17:48:49;;;;;;;;;;;;;;;;;;5107270;28;19924;-96
2022/01/23 17:51:15;;;;;;;;;;;;;;;;;;5106812;28;19993;-96
2022/01/23 17:53:46;;;;;;;;;;;;;;;;;;5087995;28;19946;-96
2022/01/23 17:56:20;;;;;;;;;;;;;;;;;;5087664;28;19930;-96
2022/01/23 17:58:47;;;;;;;;;;;;;;;;;;5103310;28;19934;-96
2022/01/23 18:01:13;;;;;;;;;;;;;;;;;;5089289;28;19924;-94
2022/01/23 18:03:39;;;;;;;;;;;;;;;;;;5092355;28;19924;-96
2022/01/23 18:06:10;;;;;;;;;;;;;;;;;;5082676;28;19929;-95
2022/01/23 18:08:36;;;;;;;;;;;;;;;;;;5088040;28;19915;-96
2022/01/23 18:11:02;;;;;;;;;;;;;;;;;;5083902;28;20373;-96
2022/01/23 18:13:29;;;;;;;;;;;;;;;;;;5100402;28;19928;-95
2022/01/23 18:15:56;;;;;;;;;;;;;;;;;;5099208;28;19933;-96
2022/01/23 18:18:28;;;;;;;;;;;;;;;;;;5086880;28;19929;-96
2022/01/23 18:20:56;;;;;;;;;;;;;;;;;;5086127;28;19915;-96
2022/01/23 18:23:22;;;;;;;;;;;;;;;;;;5086625;28;19928;-94
2022/01/23 18:25:51;;;;;;;;;;;;;;;;;;5134380;22;19924;-96
2022/01/23 18:31:15;;;;;;;;;;;;;;;;;;5085207;28;20278;-96
2022/01/23 18:33:41;;;;;;;;;;;;;;;;;;5070554;28;19928;-96
2022/01/23 18:36:08;;;;;;;;;;;;;;;;;;5070847;28;19925;-96
2022/01/23 18:38:34;;;;;;;;;;;;;;;;;;5075164;28;19932;-96
2022/01/23 18:41:01;;;;;;;;;;;;;;;;;;5065436;28;19924;-96
2022/01/23 18:43:27;;;;;;;;;;;;;;;;;;5108766;23;19959;-96
2022/01/23 18:45:54;;;;;;;;;;;;;;;;;;5098451;28;19924;-95
2022/01/23 18:48:20;;;;;;;;;;;;;;;;;;5084785;28;19924;-92
2022/01/23 18:50:47;;;;;;;;;;;;;;;;;;5083376;28;19925;-96
2022/01/23 18:53:18;;;;;;;;;;;;;;;;;;5082954;28;20019;-93
2022/01/23 18:55:47;;;;;;;;;;;;;;;;;;5082520;28;19932;-95
2022/01/23 18:58:26;;;;;;;;;;;;;;;;;;5084981;28;19908;-96
2022/01/23 19:00:54;;;;;;;;;;;;;;;;;;5082734;28;19924;-95
2022/01/23 19:03:26;;;;;;;;;;;;;;;;;;5085011;28;19960;-95
2022/01/23 19:05:59;;;;;;;;;;;;;;;;;;5081729;28;19981;-95
2022/01/23 19:08:25;;;;;;;;;;;;;;;;;;5082983;28;19948;-96
2022/01/23 19:10:51;;;;;;;;;;;;;;;;;;5083103;28;19931;-93
2022/01/23 19:13:19;;;;;;;;;;;;;;;;;;5084421;28;19924;-96
2022/01/23 19:15:45;;;;;;;;;;;;;;;;;;5084772;28;19935;-94
2022/01/23 19:18:11;;;;;;;;;;;;;;;;;;5085793;28;19978;-94
2022/01/23 19:20:37;;;;;;;;;;;;;;;;;;5084404;28;19936;-96
2022/01/23 19:23:04;;;;;;;;;;;;;;;;;;5083204;28;19928;-96
2022/01/23 19:25:30;;;;;;;;;;;;;;;;;;5083444;28;19924;-93
2022/01/23 19:28:05;;;;;;;;;;;;;;;;;;5075227;28;19928;-95
2022/01/23 19:30:31;;;;;;;;;;;;;;;;;;5074356;28;19933;-96
2022/01/23 19:32:57;;;;;;;;;;;;;;;;;;5083617;28;19925;-96
2022/01/23 19:35:24;;;;;;;;;;;;;;;;;;5073082;28;19924;-95
2022/01/23 19:37:50;;;;;;;;;;;;;;;;;;5072696;28;19928;-92
2022/01/23 19:40:19;;;;;;;;;;;;;;;;;;5078730;28;19955;-96
2022/01/23 19:43:11;;;;;;;;;;;;;;;;;;5075590;28;19908;-92
2022/01/23 19:45:35;;;;;;;;;;;;;;;;;;5071689;28;19915;-94
2022/01/23 19:48:13;;;;;;;;;;;;;;;;;;5078258;28;19939;-94
2022/01/23 19:50:39;;;;;;;;;;;;;;;;;;5075344;28;20023;-96
2022/01/23 19:55:46;;;;;;;;;;;;;;;;;;5080246;28;19974;-93
2022/01/23 19:58:12;;;;;;;;;;;;;;;;;;5083210;28;19925;-96
2022/01/23 20:00:40;;;;;;;;;;;;;;;;;;5070683;28;19932;-95
2022/01/23 20:03:06;;;;;;;;;;;;;;;;;;5067352;28;19952;-96
2022/01/23 20:05:32;;;;;;;;;;;;;;;;;;5125080;22;19908;-96
2022/01/23 20:07:59;;;;;;;;;;;;;;;;;;5103437;28;20385;-96
2022/01/23 20:10:51;;;;;;;;;;;;;;;;;;5090371;28;19940;-96
2022/01/23 20:13:15;;;;;;;;;;;;;;;;;;5090034;28;19928;-96
2022/01/23 20:15:41;;;;;;;;;;;;;;;;;;5092800;28;19955;-96
2022/01/23 20:18:18;;;;;;;;;;;;;;;;;;5087731;28;20019;-96
2022/01/23 20:20:45;;;;;;;;;;;;;;;;;;5103612;23;19931;-96
2022/01/23 20:23:11;;;;;;;;;;;;;;;;;;5064890;28;19925;-96
2022/01/23 20:25:38;;;;;;;;;;;;;;;;;;5061011;28;19925;-95
2022/01/23 20:28:04;;;;;;;;;;;;;;;;;;5054519;28;19955;-94
2022/01/23 20:30:30;;;;;;;;;;;;;;;;;;5047652;28;19925;-96
2022/01/23 20:32:57;;;;;;;;;;;;;;;;;;5050359;28;19933;-96
2022/01/23 20:35:23;;;;;;;;;;;;;;;;;;5068452;28;19976;-96
2022/01/23 20:37:53;;;;;;;;;;;;;;;;;;5069418;28;19931;-96
2022/01/23 20:40:21;;;;;;;;;;;;;;;;;;5049055;28;20645;-96
2022/01/23 20:42:48;;;;;;;;;;;;;;;;;;5047856;28;19961;-96
2022/01/23 20:45:14;;;;;;;;;;;;;;;;;;5044941;28;19929;-95
2022/01/23 20:47:43;;;;;;;;;;;;;;;;;;5043101;28;19929;-94
2022/01/23 20:50:14;;;;;;;;;;;;;;;;;;5044502;28;19929;-96
2022/01/23 20:52:52;;;;;;;;;;;;;;;;;;5047153;28;19925;-96